Time;durP1;ratioP1;P1;durP2;ratioP2;P2;SDS_P1;SDS_P2;PMS_P1;PMS_P2;Temp;Humidity;BMP_temperature;BMP_pressure;BME280_temperature;BME280_humidity;BME280_pressure;Samples;Min_cycle;Max_cycle;Signal;HPM_P1;HPM_P2
2022/07/04 00:02:14;;;;;;;;;;;11.70;99.90;;;;;;5024153;28;19918;-78
2022/07/04 00:04:40;;;;;;;;;;;11.70;99.90;;;;;;5027502;28;19917;-77
2022/07/04 00:07:06;;;;;;;;;;;11.70;99.90;;;;;;5024419;28;19928;-76
2022/07/04 00:09:31;;;;;;;;;;;11.70;99.90;;;;;;5003066;28;20063;-79
2022/07/04 00:11:57;;;;;;;;;;;11.70;99.90;;;;;;5020935;28;20310;-79
2022/07/04 00:14:22;;;;;;;;;;;11.70;99.90;;;;;;5004120;28;19925;-83
2022/07/04 00:16:48;;;;;;;;;;;11.70;99.90;;;;;;5015242;28;20267;-78
2022/07/04 00:19:13;;;;;;;;;;;11.60;99.90;;;;;;5002188;28;19917;-80
2022/07/04 00:21:39;;;;;;;;;;;11.60;99.90;;;;;;5017469;28;20771;-77
2022/07/04 00:24:05;;;;;;;;;;;11.60;99.90;;;;;;4999818;28;19917;-81
2022/07/04 00:26:30;;;;;;;;;;;11.60;99.90;;;;;;5018278;28;19917;-79
2022/07/04 00:28:57;;;;;;;;;;;11.60;99.90;;;;;;4998794;28;19944;-77
2022/07/04 00:31:23;;;;;;;;;;;11.60;99.90;;;;;;5015974;28;19968;-77
2022/07/04 00:33:48;;;;;;;;;;;11.50;99.90;;;;;;5019401;28;19925;-79
2022/07/04 00:36:14;;;;;;;;;;;11.50;99.90;;;;;;4995926;28;19951;-77
2022/07/04 00:38:39;;;;;;;;;;;11.60;99.90;;;;;;5017168;28;19964;-82
2022/07/04 00:41:05;;;;;;;;;;;11.60;99.90;;;;;;5032275;28;19917;-77
2022/07/04 00:43:31;;;;;;;;;;;11.60;99.90;;;;;;5015401;28;19972;-80
2022/07/04 00:45:56;;;;;;;;;;;11.60;99.90;;;;;;4998303;28;19917;-78
2022/07/04 00:48:22;;;;;;;;;;;11.60;99.90;;;;;;5001739;28;19990;-77
2022/07/04 00:50:48;;;;;;;;;;;11.60;99.90;;;;;;5007558;28;20048;-79
2022/07/04 00:53:14;;;;;;;;;;;11.60;99.90;;;;;;4997279;28;19917;-77
2022/07/04 00:55:40;;;;;;;;;;;11.60;99.90;;;;;;5013982;28;19945;-79
2022/07/04 00:58:06;;;;;;;;;;;11.60;99.90;;;;;;5019146;28;20374;-79
2022/07/04 01:00:31;;;;;;;;;;;11.60;99.90;;;;;;5018458;28;19916;-77
2022/07/04 01:02:57;;;;;;;;;;;11.60;99.90;;;;;;5021744;28;19921;-81
2022/07/04 01:05:23;;;;;;;;;;;11.50;99.90;;;;;;5010825;28;20430;-78
2022/07/04 01:07:49;;;;;;;;;;;11.50;99.90;;;;;;4977187;28;19995;-80
2022/07/04 01:10:15;;;;;;;;;;;11.50;99.90;;;;;;5003237;28;19959;-78
2022/07/04 01:12:40;;;;;;;;;;;11.50;99.90;;;;;;5015550;28;20355;-80
2022/07/04 01:15:06;;;;;;;;;;;11.50;99.90;;;;;;4998485;28;19928;-79
2022/07/04 01:17:32;;;;;;;;;;;11.50;99.90;;;;;;5006678;28;19917;-77
2022/07/04 01:19:58;;;;;;;;;;;11.50;99.90;;;;;;5028997;28;19965;-76
2022/07/04 01:22:23;;;;;;;;;;;11.40;99.90;;;;;;5017738;28;19921;-81
2022/07/04 01:24:49;;;;;;;;;;;11.40;99.90;;;;;;4990547;28;20266;-80
2022/07/04 01:27:15;;;;;;;;;;;11.40;99.90;;;;;;5028711;28;20550;-81
2022/07/04 01:29:41;;;;;;;;;;;11.40;99.90;;;;;;5017619;28;19921;-80
2022/07/04 01:32:07;;;;;;;;;;;11.40;99.90;;;;;;5017231;28;19923;-78
2022/07/04 01:34:33;;;;;;;;;;;11.30;99.90;;;;;;5022359;28;20008;-78
2022/07/04 01:36:59;;;;;;;;;;;11.30;99.90;;;;;;5011067;28;20005;-77
2022/07/04 01:39:26;;;;;;;;;;;11.30;99.90;;;;;;5044418;28;19921;-77
2022/07/04 01:41:51;;;;;;;;;;;11.30;99.90;;;;;;5014452;28;19923;-77
2022/07/04 01:44:17;;;;;;;;;;;11.30;99.90;;;;;;5000868;28;19999;-77
2022/07/04 01:46:48;;;;;;;;;;;11.30;99.90;;;;;;5013321;28;19970;-77
2022/07/04 01:49:14;;;;;;;;;;;11.30;99.90;;;;;;5018334;28;19917;-79
2022/07/04 01:51:44;;;;;;;;;;;11.30;99.90;;;;;;5016408;28;20269;-79
2022/07/04 01:54:09;;;;;;;;;;;11.30;99.90;;;;;;5019682;28;19928;-78
2022/07/04 01:56:35;;;;;;;;;;;11.30;99.90;;;;;;5001310;28;20363;-75
2022/07/04 01:59:01;;;;;;;;;;;11.20;99.90;;;;;;4993703;28;20268;-80
2022/07/04 02:01:30;;;;;;;;;;;11.20;99.90;;;;;;4998138;28;20501;-78
2022/07/04 02:04:00;;;;;;;;;;;11.20;99.90;;;;;;5012661;28;20295;-79
2022/07/04 02:06:26;;;;;;;;;;;11.20;99.90;;;;;;5021508;28;20003;-78
2022/07/04 02:14:20;;;;;;;;;;;11.20;99.90;;;;;;5016311;28;19927;-79
2022/07/04 02:16:46;;;;;;;;;;;11.20;99.90;;;;;;5003952;28;19959;-81
2022/07/04 02:19:11;;;;;;;;;;;11.20;99.90;;;;;;5005093;28;19967;-80
2022/07/04 02:21:37;;;;;;;;;;;11.20;99.90;;;;;;4994582;28;19917;-79
2022/07/04 02:24:03;;;;;;;;;;;11.20;99.90;;;;;;5010198;28;19922;-80
2022/07/04 02:26:28;;;;;;;;;;;11.20;99.90;;;;;;5020491;28;20263;-75
2022/07/04 02:28:54;;;;;;;;;;;11.20;99.90;;;;;;5022749;28;19917;-78
2022/07/04 02:31:19;;;;;;;;;;;11.10;99.90;;;;;;5016825;28;20012;-80
2022/07/04 02:33:45;;;;;;;;;;;11.10;99.90;;;;;;5036410;28;19916;-77
2022/07/04 02:36:11;;;;;;;;;;;11.10;99.90;;;;;;5019989;28;19917;-80
2022/07/04 02:38:36;;;;;;;;;;;11.10;99.90;;;;;;5015956;28;19917;-79
2022/07/04 02:41:02;;;;;;;;;;;11.10;99.90;;;;;;5015154;28;20413;-79
2022/07/04 02:43:27;;;;;;;;;;;11.10;99.90;;;;;;5023993;28;19918;-77
2022/07/04 02:45:53;;;;;;;;;;;11.10;99.90;;;;;;5014622;28;20438;-75
2022/07/04 02:48:18;;;;;;;;;;;11.00;99.90;;;;;;5019211;28;19928;-78
2022/07/04 02:50:44;;;;;;;;;;;11.00;99.90;;;;;;5022482;28;19924;-82
2022/07/04 02:53:10;;;;;;;;;;;11.10;99.90;;;;;;5012872;28;19945;-80
2022/07/04 02:55:35;;;;;;;;;;;11.10;99.90;;;;;;5017997;28;19932;-78
2022/07/04 02:58:01;;;;;;;;;;;11.00;99.90;;;;;;4998889;28;19925;-78
2022/07/04 03:00:26;;;;;;;;;;;11.00;99.90;;;;;;4995941;28;19921;-80
2022/07/04 03:02:53;;;;;;;;;;;11.00;99.90;;;;;;5011040;28;19918;-75
2022/07/04 03:05:19;;;;;;;;;;;11.10;99.90;;;;;;5013972;28;20059;-77
2022/07/04 03:07:44;;;;;;;;;;;11.20;99.90;;;;;;5015501;28;20402;-79
2022/07/04 03:10:10;;;;;;;;;;;11.20;99.90;;;;;;5011502;28;19953;-80
2022/07/04 03:12:35;;;;;;;;;;;11.30;99.90;;;;;;5011103;28;19928;-77
2022/07/04 03:15:01;;;;;;;;;;;11.30;99.90;;;;;;5007449;28;19929;-76
2022/07/04 03:17:28;;;;;;;;;;;11.30;99.90;;;;;;4981382;28;20263;-76
2022/07/04 03:19:53;;;;;;;;;;;11.40;99.90;;;;;;5010201;28;19921;-80
2022/07/04 03:22:19;;;;;;;;;;;11.40;99.90;;;;;;4982346;28;19944;-76
2022/07/04 03:24:46;;;;;;;;;;;11.50;99.90;;;;;;5027811;28;19964;-80
2022/07/04 03:27:11;;;;;;;;;;;11.50;99.90;;;;;;5000819;28;19925;-80
2022/07/04 03:29:37;;;;;;;;;;;11.60;99.90;;;;;;4995875;28;19922;-78
2022/07/04 03:32:03;;;;;;;;;;;11.60;99.90;;;;;;5016227;28;19921;-80
2022/07/04 03:34:28;;;;;;;;;;;11.60;99.90;;;;;;5013359;28;19932;-78
2022/07/04 03:36:54;;;;;;;;;;;11.70;99.90;;;;;;5001129;28;19921;-81
2022/07/04 03:39:20;;;;;;;;;;;11.70;99.90;;;;;;5029546;28;20320;-77
2022/07/04 03:41:45;;;;;;;;;;;11.70;99.90;;;;;;5015024;28;20430;-78
2022/07/04 03:44:11;;;;;;;;;;;11.70;99.90;;;;;;5029694;28;19963;-79
2022/07/04 03:46:36;;;;;;;;;;;11.70;99.90;;;;;;5021240;28;19940;-78
2022/07/04 03:49:02;;;;;;;;;;;11.70;99.90;;;;;;5028130;28;19960;-81
2022/07/04 03:51:27;;;;;;;;;;;11.70;99.90;;;;;;5005284;28;19921;-77
2022/07/04 03:53:53;;;;;;;;;;;11.80;99.90;;;;;;4994406;28;20282;-79
2022/07/04 03:56:18;;;;;;;;;;;11.80;99.90;;;;;;5010180;28;19921;-79
2022/07/04 03:58:48;;;;;;;;;;;11.90;99.90;;;;;;5011222;28;19971;-80
2022/07/04 04:01:23;;;;;;;;;;;11.90;99.90;;;;;;5011106;28;19917;-80
2022/07/04 04:06:33;;;;;;;;;;;11.90;99.90;;;;;;5017473;28;19921;-81
2022/07/04 04:08:58;;;;;;;;;;;11.90;99.90;;;;;;5014410;28;20248;-78
2022/07/04 04:11:24;;;;;;;;;;;12.00;99.90;;;;;;5012164;28;20280;-79
2022/07/04 04:13:49;;;;;;;;;;;12.00;99.90;;;;;;5024188;28;19917;-76
2022/07/04 04:16:15;;;;;;;;;;;12.10;99.90;;;;;;5006955;28;19925;-79
2022/07/04 04:18:41;;;;;;;;;;;12.10;99.90;;;;;;5021194;28;19995;-78
2022/07/04 04:21:06;;;;;;;;;;;12.20;99.90;;;;;;4996563;28;20355;-77
2022/07/04 04:23:32;;;;;;;;;;;12.20;99.90;;;;;;5012585;28;20371;-79
2022/07/04 04:25:57;;;;;;;;;;;12.30;99.90;;;;;;5016678;28;19927;-78
2022/07/04 04:28:23;;;;;;;;;;;12.30;99.90;;;;;;5017569;28;19924;-76
2022/07/04 04:30:52;;;;;;;;;;;12.40;99.90;;;;;;5015171;28;19929;-79
2022/07/04 04:33:17;;;;;;;;;;;12.50;99.90;;;;;;5016172;28;20000;-74
2022/07/04 04:35:43;;;;;;;;;;;12.60;99.90;;;;;;5023215;28;20008;-75
2022/07/04 04:38:08;;;;;;;;;;;12.70;99.90;;;;;;5017747;28;19972;-79
2022/07/04 04:40:34;;;;;;;;;;;12.90;99.90;;;;;;5029179;28;19927;-80
2022/07/04 04:42:59;;;;;;;;;;;13.00;99.90;;;;;;5023939;28;20413;-79
2022/07/04 04:45:25;;;;;;;;;;;13.10;99.90;;;;;;4999323;28;19917;-80
2022/07/04 04:47:54;;;;;;;;;;;13.20;99.90;;;;;;5024659;28;19967;-77
2022/07/04 04:50:20;;;;;;;;;;;13.20;99.90;;;;;;5021465;28;19960;-76
2022/07/04 04:52:45;;;;;;;;;;;13.30;99.90;;;;;;5018418;28;20436;-78
2022/07/04 04:55:11;;;;;;;;;;;13.30;99.90;;;;;;5006580;28;19921;-80
2022/07/04 04:57:37;;;;;;;;;;;13.40;99.90;;;;;;5025294;28;19917;-80
2022/07/04 05:00:04;;;;;;;;;;;13.40;99.90;;;;;;5004527;28;19921;-81
2022/07/04 05:02:30;;;;;;;;;;;13.40;99.90;;;;;;5014604;28;19924;-76
2022/07/04 05:04:55;;;;;;;;;;;13.50;99.90;;;;;;5019393;28;19917;-77
2022/07/04 05:07:21;;;;;;;;;;;13.50;99.90;;;;;;5038438;28;20000;-80
2022/07/04 05:09:46;;;;;;;;;;;13.50;99.90;;;;;;5014283;28;19956;-81
2022/07/04 05:12:13;;;;;;;;;;;13.60;99.90;;;;;;5016365;28;19932;-82
2022/07/04 05:14:39;;;;;;;;;;;13.70;99.90;;;;;;5018667;28;19921;-81
2022/07/04 05:17:04;;;;;;;;;;;13.80;99.90;;;;;;5012207;28;20366;-79
2022/07/04 05:19:30;;;;;;;;;;;14.00;99.90;;;;;;5020469;28;19999;-81
2022/07/04 05:21:55;;;;;;;;;;;14.30;99.90;;;;;;5020822;28;19928;-78
2022/07/04 05:24:21;;;;;;;;;;;14.50;99.90;;;;;;5014191;28;20003;-78
2022/07/04 05:26:47;;;;;;;;;;;14.70;99.90;;;;;;5015876;28;19923;-78
2022/07/04 05:29:12;;;;;;;;;;;14.80;99.90;;;;;;5021630;28;20013;-77
2022/07/04 05:31:38;;;;;;;;;;;14.90;99.90;;;;;;5013455;28;19933;-78
2022/07/04 05:34:04;;;;;;;;;;;14.90;99.90;;;;;;5014892;28;20020;-80
2022/07/04 05:36:30;;;;;;;;;;;14.90;99.90;;;;;;5019129;28;20008;-78
2022/07/04 05:38:56;;;;;;;;;;;14.90;99.90;;;;;;5001320;28;20007;-79
2022/07/04 05:41:22;;;;;;;;;;;14.90;99.90;;;;;;4995824;28;19917;-79
2022/07/04 05:43:47;;;;;;;;;;;14.90;99.90;;;;;;5013967;28;19917;-81
2022/07/04 05:46:13;;;;;;;;;;;14.90;99.90;;;;;;5004682;28;20432;-82
2022/07/04 05:48:39;;;;;;;;;;;14.90;99.90;;;;;;4992641;28;20004;-79
2022/07/04 05:51:04;;;;;;;;;;;15.00;99.90;;;;;;4997713;28;19925;-81
2022/07/04 05:53:30;;;;;;;;;;;15.10;99.90;;;;;;5001439;28;19965;-81
2022/07/04 05:55:55;;;;;;;;;;;15.30;99.90;;;;;;5004588;28;19976;-80
2022/07/04 05:58:21;;;;;;;;;;;15.40;99.90;;;;;;5007619;28;19923;-81
2022/07/04 06:00:46;;;;;;;;;;;15.50;99.90;;;;;;5010941;28;19917;-81
2022/07/04 06:03:12;;;;;;;;;;;15.50;99.90;;;;;;5000965;28;20524;-80
2022/07/04 06:05:37;;;;;;;;;;;15.50;99.90;;;;;;5016199;28;20012;-79
2022/07/04 06:08:03;;;;;;;;;;;15.50;99.90;;;;;;5005979;28;19969;-78
2022/07/04 06:10:29;;;;;;;;;;;15.50;99.90;;;;;;5005009;28;20008;-80
2022/07/04 06:12:54;;;;;;;;;;;15.50;99.90;;;;;;5005548;28;19917;-79
2022/07/04 06:15:20;;;;;;;;;;;15.60;99.90;;;;;;5001696;28;20381;-77
2022/07/04 06:17:46;;;;;;;;;;;15.60;99.90;;;;;;5016185;28;19924;-78
2022/07/04 06:20:11;;;;;;;;;;;15.70;99.90;;;;;;4991995;28;19924;-77
2022/07/04 06:22:41;;;;;;;;;;;15.80;99.90;;;;;;4992591;28;19921;-76
2022/07/04 06:25:11;;;;;;;;;;;15.90;99.90;;;;;;5012791;28;20465;-78
2022/07/04 06:27:37;;;;;;;;;;;16.00;99.90;;;;;;4998175;28;20282;-78
2022/07/04 06:30:03;;;;;;;;;;;16.10;99.90;;;;;;5012081;28;19932;-76
2022/07/04 06:32:28;;;;;;;;;;;16.30;99.90;;;;;;4999822;28;20359;-79
2022/07/04 06:37:39;;;;;;;;;;;16.60;99.90;;;;;;5012951;28;19917;-77
2022/07/04 06:40:05;;;;;;;;;;;16.80;99.90;;;;;;5015059;28;20358;-75
2022/07/04 06:42:30;;;;;;;;;;;16.90;99.90;;;;;;4976297;28;20282;-76
2022/07/04 06:44:56;;;;;;;;;;;17.00;99.90;;;;;;5013734;28;19965;-76
2022/07/04 06:47:21;;;;;;;;;;;17.10;99.90;;;;;;5020090;28;19921;-77
2022/07/04 06:49:47;;;;;;;;;;;17.30;99.90;;;;;;5012424;28;20282;-77
2022/07/04 06:52:14;;;;;;;;;;;17.40;99.90;;;;;;4995060;28;19963;-77
2022/07/04 06:54:39;;;;;;;;;;;17.40;99.90;;;;;;5007101;28;19921;-75
2022/07/04 06:57:05;;;;;;;;;;;17.50;99.90;;;;;;5032237;28;19925;-76
2022/07/04 06:59:31;;;;;;;;;;;17.60;99.90;;;;;;5005131;28;19979;-75
2022/07/04 07:01:56;;;;;;;;;;;17.70;99.90;;;;;;5012657;28;20000;-78
2022/07/04 07:04:22;;;;;;;;;;;17.80;99.90;;;;;;4992664;28;20404;-79
2022/07/04 07:06:48;;;;;;;;;;;17.90;99.90;;;;;;5012314;28;19953;-76
2022/07/04 07:09:14;;;;;;;;;;;17.90;99.90;;;;;;5005546;28;19921;-77
2022/07/04 07:11:39;;;;;;;;;;;18.00;99.90;;;;;;4993791;28;19962;-76
2022/07/04 07:14:05;;;;;;;;;;;18.10;99.90;;;;;;5013652;28;20378;-78
2022/07/04 07:16:30;;;;;;;;;;;18.10;99.90;;;;;;5016246;28;20004;-80
2022/07/04 07:19:02;;;;;;;;;;;18.20;99.90;;;;;;4993659;28;20341;-80
2022/07/04 07:21:28;;;;;;;;;;;18.40;99.90;;;;;;5017444;28;20411;-79
2022/07/04 07:23:56;;;;;;;;;;;18.50;99.90;;;;;;5016962;28;19955;-84
2022/07/04 07:26:22;;;;;;;;;;;18.60;99.90;;;;;;5001068;28;19940;-79
2022/07/04 07:28:48;;;;;;;;;;;18.70;99.90;;;;;;5011403;28;19925;-75
2022/07/04 07:31:14;;;;;;;;;;;18.70;99.90;;;;;;5019074;28;19927;-75
2022/07/04 07:33:39;;;;;;;;;;;18.80;99.90;;;;;;5024559;28;19925;-75
2022/07/04 07:36:05;;;;;;;;;;;18.70;99.90;;;;;;5008282;28;19922;-76
2022/07/04 07:38:31;;;;;;;;;;;18.60;99.90;;;;;;4994560;28;19963;-80
2022/07/04 07:40:57;;;;;;;;;;;18.70;99.90;;;;;;5003540;28;19928;-80
2022/07/04 07:43:23;;;;;;;;;;;18.80;99.90;;;;;;5013932;28;20024;-79
2022/07/04 07:45:48;;;;;;;;;;;18.60;99.90;;;;;;5004651;28;20030;-79
2022/07/04 07:48:14;;;;;;;;;;;18.90;99.90;;;;;;5004489;28;19917;-79
2022/07/04 07:50:40;;;;;;;;;;;19.10;99.90;;;;;;4990750;28;19921;-80
2022/07/04 07:53:05;;;;;;;;;;;19.30;99.90;;;;;;5033405;28;19928;-77
2022/07/04 07:55:31;;;;;;;;;;;19.40;99.90;;;;;;5037183;28;19918;-80
2022/07/04 07:57:58;;;;;;;;;;;19.40;99.90;;;;;;5017389;28;19933;-78
2022/07/04 08:00:24;;;;;;;;;;;19.10;99.90;;;;;;5045403;28;19980;-79
2022/07/04 08:05:34;;;;;;;;;;;18.70;99.90;;;;;;5018528;28;20004;-78
2022/07/04 08:08:13;;;;;;;;;;;;;;;;;;;;;
2022/07/04 08:10:39;;;;;;;;;;;18.30;99.90;;;;;;5009479;28;19947;-80
2022/07/04 08:13:05;;;;;;;;;;;18.20;99.90;;;;;;4994854;28;20339;-79
2022/07/04 08:15:31;;;;;;;;;;;18.20;99.90;;;;;;4997399;28;19921;-79
2022/07/04 08:17:57;;;;;;;;;;;18.00;99.90;;;;;;5001553;28;20398;-79
2022/07/04 08:20:23;;;;;;;;;;;18.20;99.90;;;;;;4997526;28;19921;-81
2022/07/04 08:22:50;;;;;;;;;;;17.90;99.90;;;;;;5001865;28;19926;-82
2022/07/04 08:25:20;;;;;;;;;;;17.10;99.90;;;;;;4997915;28;19921;-82
2022/07/04 08:27:45;;;;;;;;;;;18.30;99.90;;;;;;4999095;28;19928;-80
2022/07/04 08:30:11;;;;;;;;;;;18.40;99.90;;;;;;5005617;28;19921;-79
2022/07/04 08:32:36;;;;;;;;;;;18.40;99.90;;;;;;5011681;28;19921;-78
2022/07/04 08:35:03;;;;;;;;;;;18.60;99.90;;;;;;4995124;28;20279;-83
2022/07/04 08:37:31;;;;;;;;;;;18.90;99.90;;;;;;5015579;28;20379;-80
2022/07/04 08:39:57;;;;;;;;;;;19.20;99.90;;;;;;4998821;28;19954;-79
2022/07/04 08:42:23;;;;;;;;;;;19.40;99.90;;;;;;4999515;28;20303;-80
2022/07/04 08:44:53;;;;;;;;;;;19.60;99.90;;;;;;5000252;28;19921;-80
2022/07/04 08:47:20;;;;;;;;;;;19.40;99.90;;;;;;5014436;28;20547;-79
2022/07/04 08:49:53;;;;;;;;;;;19.30;99.90;;;;;;5001065;28;19921;-80
2022/07/04 08:52:26;;;;;;;;;;;19.30;99.90;;;;;;4994123;28;19918;-78
2022/07/04 09:00:22;;;;;;;;;;;19.60;99.90;;;;;;4998264;28;19957;-75
2022/07/04 09:02:48;;;;;;;;;;;19.70;99.90;;;;;;5015691;28;20324;-77
2022/07/04 09:05:15;;;;;;;;;;;19.90;99.90;;;;;;5010823;28;20358;-77
2022/07/04 09:07:41;;;;;;;;;;;20.00;99.90;;;;;;5015273;28;19929;-76
2022/07/04 09:10:08;;;;;;;;;;;20.10;99.90;;;;;;5015639;28;19921;-74
2022/07/04 09:12:34;;;;;;;;;;;20.10;99.90;;;;;;4994998;28;19921;-81
2022/07/04 09:15:01;;;;;;;;;;;20.00;99.90;;;;;;5017393;28;20613;-77
2022/07/04 09:17:27;;;;;;;;;;;20.00;99.90;;;;;;5008836;28;19933;-78
2022/07/04 09:20:12;;;;;;;;;;;20.10;99.90;;;;;;5003047;28;19970;-81
2022/07/04 09:22:37;;;;;;;;;;;20.20;99.90;;;;;;4995589;28;19921;-77
2022/07/04 09:25:05;;;;;;;;;;;20.30;99.90;;;;;;5014130;28;19925;-77
2022/07/04 09:27:36;;;;;;;;;;;20.40;99.90;;;;;;5011664;28;20322;-77
2022/07/04 09:30:02;;;;;;;;;;;20.50;99.90;;;;;;5003159;28;19918;-75
2022/07/04 09:32:38;;;;;;;;;;;20.60;99.90;;;;;;5018026;28;19960;-78
2022/07/04 09:35:04;;;;;;;;;;;20.70;99.90;;;;;;5016387;28;20272;-75
2022/07/04 09:37:34;;;;;;;;;;;20.80;99.90;;;;;;5015647;28;20346;-78
2022/07/04 09:40:00;;;;;;;;;;;20.80;99.90;;;;;;5010282;28;19991;-78
2022/07/04 09:42:33;;;;;;;;;;;20.70;99.90;;;;;;5017629;28;19922;-79
2022/07/04 09:45:03;;;;;;;;;;;20.60;99.90;;;;;;4996523;28;19921;-79
2022/07/04 09:47:29;;;;;;;;;;;20.30;99.90;;;;;;5015677;28;19921;-77
2022/07/04 09:50:06;;;;;;;;;;;20.20;99.90;;;;;;5013196;28;19921;-81
2022/07/04 09:52:43;;;;;;;;;;;20.20;99.90;;;;;;5006573;28;19980;-80
2022/07/04 09:55:08;;;;;;;;;;;20.30;99.90;;;;;;5012604;28;20004;-81
2022/07/04 09:57:34;;;;;;;;;;;20.50;99.90;;;;;;5001665;28;20583;-79
2022/07/04 10:00:22;;;;;;;;;;;20.70;99.90;;;;;;5012131;28;19917;-83
2022/07/04 10:02:49;;;;;;;;;;;20.70;99.90;;;;;;4984380;28;20305;-83
2022/07/04 10:05:22;;;;;;;;;;;20.90;99.90;;;;;;5002226;28;19918;-83
2022/07/04 10:07:48;;;;;;;;;;;21.40;99.90;;;;;;4998604;28;19924;-83
2022/07/04 10:10:22;;;;;;;;;;;21.70;99.90;;;;;;5000897;28;19917;-82
2022/07/04 10:12:51;;;;;;;;;;;21.90;99.90;;;;;;4999255;28;19925;-85
2022/07/04 10:15:17;;;;;;;;;;;21.90;99.90;;;;;;4993721;28;19922;-84
2022/07/04 10:17:46;;;;;;;;;;;22.00;99.90;;;;;;4994193;28;20330;-84
2022/07/04 10:20:12;;;;;;;;;;;22.00;99.90;;;;;;5007585;28;19967;-83
2022/07/04 10:22:38;;;;;;;;;;;21.80;99.90;;;;;;5013273;28;19921;-79
2022/07/04 10:25:08;;;;;;;;;;;22.10;99.90;;;;;;4994455;28;19947;-80
2022/07/04 10:27:41;;;;;;;;;;;22.10;99.90;;;;;;5021310;28;19920;-80
2022/07/04 10:30:09;;;;;;;;;;;22.30;99.90;;;;;;4987232;28;19917;-81
2022/07/04 10:32:43;;;;;;;;;;;22.10;99.90;;;;;;4982057;28;19924;-83
2022/07/04 10:35:08;;;;;;;;;;;21.80;99.90;;;;;;4997210;28;20598;-83
2022/07/04 10:37:53;;;;;;;;;;;21.30;99.90;;;;;;5001775;28;19944;-82
2022/07/04 10:40:37;;;;;;;;;;;21.10;99.90;;;;;;5010109;28;19920;-77
2022/07/04 10:43:25;;;;;;;;;;;21.10;99.90;;;;;;5016256;28;19964;-84
2022/07/04 10:45:52;;;;;;;;;;;21.20;99.90;;;;;;4992775;28;19924;-77
2022/07/04 10:48:22;;;;;;;;;;;21.50;99.90;;;;;;5018740;28;19924;-84
2022/07/04 10:51:08;;;;;;;;;;;21.90;99.90;;;;;;5002778;28;20016;-83
2022/07/04 10:53:53;;;;;;;;;;;22.10;99.90;;;;;;4987169;28;19925;-83
2022/07/04 10:56:19;;;;;;;;;;;22.00;99.90;;;;;;4998595;28;20356;-82
2022/07/04 10:58:45;;;;;;;;;;;21.60;99.90;;;;;;5025108;28;19970;-83
2022/07/04 11:01:12;;;;;;;;;;;21.30;99.90;;;;;;4988734;28;19943;-82
2022/07/04 11:03:50;;;;;;;;;;;21.10;99.90;;;;;;5006870;28;19926;-82
2022/07/04 11:06:42;;;;;;;;;;;21.20;99.90;;;;;;5001507;28;19921;-83
2022/07/04 11:09:17;;;;;;;;;;;21.40;99.90;;;;;;4997302;28;19921;-82
2022/07/04 11:11:59;;;;;;;;;;;21.70;99.90;;;;;;5017381;28;19921;-81
2022/07/04 11:14:46;;;;;;;;;;;21.90;99.90;;;;;;5000652;28;19927;-81
2022/07/04 11:17:47;;;;;;;;;;;21.70;99.90;;;;;;5012814;28;19917;-82
2022/07/04 11:20:14;;;;;;;;;;;21.40;99.90;;;;;;4997251;28;19936;-86
2022/07/04 11:22:44;;;;;;;;;;;20.90;99.90;;;;;;5018594;28;19925;-83
2022/07/04 11:25:11;;;;;;;;;;;20.80;99.90;;;;;;5010088;28;20012;-79
2022/07/04 11:27:40;;;;;;;;;;;20.90;99.90;;;;;;5021117;28;19925;-80
2022/07/04 11:30:06;;;;;;;;;;;21.30;99.90;;;;;;5016588;28;19944;-78
2022/07/04 11:32:32;;;;;;;;;;;21.60;99.90;;;;;;5020714;28;19952;-83
2022/07/04 11:35:00;;;;;;;;;;;21.70;99.90;;;;;;5025517;28;19925;-80
2022/07/04 11:37:25;;;;;;;;;;;21.60;99.90;;;;;;5034006;28;19910;-80
2022/07/04 11:39:51;;;;;;;;;;;21.60;99.90;;;;;;5045208;28;19905;-83
2022/07/04 11:45:16;;;;;;;;;;;21.20;99.90;;;;;;5024008;28;19917;-85
2022/07/04 11:47:42;;;;;;;;;;;21.10;99.00;;;;;;5007990;28;20349;-83
2022/07/04 11:50:12;;;;;;;;;;;21.10;99.90;;;;;;5022765;28;19933;-80
2022/07/04 11:52:38;;;;;;;;;;;21.10;99.90;;;;;;5026887;28;20048;-79
2022/07/04 11:55:05;;;;;;;;;;;21.20;99.90;;;;;;5012776;28;21343;-81
2022/07/04 11:57:35;;;;;;;;;;;21.40;99.90;;;;;;5004038;28;19959;-82
2022/07/04 12:00:09;;;;;;;;;;;21.00;99.90;;;;;;4998298;28;19918;-80
2022/07/04 12:02:35;;;;;;;;;;;21.50;99.70;;;;;;4983693;28;19987;-86
2022/07/04 12:05:04;;;;;;;;;;;21.40;98.40;;;;;;5012700;28;20620;-84
2022/07/04 12:07:43;;;;;;;;;;;21.40;98.70;;;;;;5002132;28;19925;-81
2022/07/04 12:10:12;;;;;;;;;;;21.50;99.60;;;;;;4999572;28;20374;-83
2022/07/04 12:12:55;;;;;;;;;;;21.80;99.90;;;;;;5008119;28;19940;-85
2022/07/04 12:15:22;;;;;;;;;;;22.00;98.80;;;;;;5014981;28;19932;-85
2022/07/04 12:17:54;;;;;;;;;;;22.00;95.80;;;;;;5011598;28;19924;-82
2022/07/04 12:20:21;;;;;;;;;;;21.80;96.60;;;;;;5002671;28;19917;-81
2022/07/04 12:22:52;;;;;;;;;;;22.10;99.30;;;;;;4997430;28;19921;-83
2022/07/04 12:25:32;;;;;;;;;;;22.70;95.90;;;;;;4999364;28;19917;-78
2022/07/04 12:28:06;;;;;;;;;;;22.30;96.40;;;;;;5021368;28;19918;-76
2022/07/04 12:30:33;;;;;;;;;;;22.40;95.80;;;;;;5016700;28;19917;-75
2022/07/04 12:33:08;;;;;;;;;;;22.50;93.70;;;;;;5015801;28;20008;-80
2022/07/04 12:35:34;;;;;;;;;;;22.20;93.80;;;;;;5025074;28;19924;-80
2022/07/04 12:38:00;;;;;;;;;;;22.00;93.30;;;;;;5012947;28;19928;-80
2022/07/04 12:40:26;;;;;;;;;;;22.10;95.00;;;;;;5015121;28;19924;-82
2022/07/04 12:43:03;;;;;;;;;;;22.30;94.30;;;;;;5027785;28;19921;-80
2022/07/04 12:45:49;;;;;;;;;;;22.50;94.10;;;;;;5019994;28;19925;-78
2022/07/04 12:48:15;;;;;;;;;;;22.60;94.00;;;;;;4999810;28;19925;-80
2022/07/04 12:50:41;;;;;;;;;;;22.60;94.40;;;;;;4998963;28;19921;-81
2022/07/04 12:53:07;;;;;;;;;;;22.80;96.40;;;;;;4991905;28;19931;-79
2022/07/04 12:55:32;;;;;;;;;;;22.90;96.40;;;;;;4996096;28;19956;-80
2022/07/04 12:58:01;;;;;;;;;;;22.50;96.40;;;;;;4998521;28;19917;-77
2022/07/04 13:00:29;;;;;;;;;;;22.40;97.00;;;;;;5012225;28;20021;-79
2022/07/04 13:02:54;;;;;;;;;;;22.20;96.20;;;;;;5020593;28;19927;-81
2022/07/04 13:05:20;;;;;;;;;;;22.10;97.30;;;;;;5005980;28;19999;-77
2022/07/04 13:07:46;;;;;;;;;;;22.40;95.50;;;;;;5020505;28;19918;-78
2022/07/04 13:10:12;;;;;;;;;;;22.60;96.70;;;;;;4995278;28;19944;-79
2022/07/04 13:12:37;;;;;;;;;;;23.00;98.00;;;;;;4983061;28;19922;-80
2022/07/04 13:15:05;;;;;;;;;;;23.30;94.90;;;;;;4997500;28;19936;-82
2022/07/04 13:17:31;;;;;;;;;;;23.40;91.90;;;;;;5015655;28;19917;-82
2022/07/04 13:20:01;;;;;;;;;;;23.30;89.40;;;;;;5006049;28;20303;-81
2022/07/04 13:22:27;;;;;;;;;;;23.60;95.40;;;;;;5015000;28;20329;-80
2022/07/04 13:25:00;;;;;;;;;;;23.90;91.60;;;;;;5020266;28;20008;-83
2022/07/04 13:27:26;;;;;;;;;;;24.00;91.40;;;;;;4987545;28;19972;-79
2022/07/04 13:29:51;;;;;;;;;;;23.80;90.30;;;;;;4983517;28;19964;-76
2022/07/04 13:32:17;;;;;;;;;;;23.50;91.20;;;;;;5023760;28;19959;-76
2022/07/04 13:34:51;;;;;;;;;;;23.40;90.50;;;;;;5016746;28;19975;-82
2022/07/04 13:37:18;;;;;;;;;;;23.50;89.30;;;;;;5006987;28;19921;-78
2022/07/04 13:39:56;;;;;;;;;;;23.60;90.90;;;;;;5000563;28;19966;-83
2022/07/04 13:45:10;;;;;;;;;;;23.30;85.90;;;;;;5010887;28;19921;-80
2022/07/04 13:47:35;;;;;;;;;;;23.20;87.20;;;;;;4997728;28;20346;-83
2022/07/04 13:50:01;;;;;;;;;;;23.20;87.00;;;;;;5001250;28;19917;-81
2022/07/04 13:52:37;;;;;;;;;;;23.40;87.80;;;;;;5017933;28;20012;-85
2022/07/04 13:55:03;;;;;;;;;;;22.80;88.30;;;;;;5001592;28;19936;-76
2022/07/04 13:57:29;;;;;;;;;;;23.40;84.60;;;;;;4994447;28;19925;-80
2022/07/04 13:59:55;;;;;;;;;;;23.30;83.90;;;;;;4982582;28;19917;-80
2022/07/04 14:02:21;;;;;;;;;;;23.40;83.10;;;;;;4993767;28;19991;-80
2022/07/04 14:04:46;;;;;;;;;;;23.70;84.70;;;;;;5010875;28;19921;-78
2022/07/04 14:07:12;;;;;;;;;;;23.70;83.10;;;;;;5001676;28;19927;-78
2022/07/04 14:09:38;;;;;;;;;;;23.40;83.70;;;;;;5003862;28;20000;-76
2022/07/04 14:12:04;;;;;;;;;;;23.10;85.30;;;;;;5027809;28;19925;-79
2022/07/04 14:14:29;;;;;;;;;;;23.30;86.80;;;;;;5019417;28;19925;-77
2022/07/04 14:16:55;;;;;;;;;;;23.70;83.70;;;;;;5016865;28;19964;-79
2022/07/04 14:19:20;;;;;;;;;;;23.40;82.30;;;;;;5026075;28;19917;-79
2022/07/04 14:21:46;;;;;;;;;;;23.10;83.70;;;;;;4997077;28;20384;-81
2022/07/04 14:24:12;;;;;;;;;;;22.90;85.20;;;;;;5004753;28;19931;-81
2022/07/04 14:26:40;;;;;;;;;;;22.80;83.50;;;;;;5010745;28;19921;-80
2022/07/04 14:29:09;;;;;;;;;;;23.10;86.00;;;;;;4994355;28;20367;-82
2022/07/04 14:31:52;;;;;;;;;;;23.40;81.10;;;;;;4995863;28;19993;-81
2022/07/04 14:34:18;;;;;;;;;;;23.80;81.90;;;;;;5002608;28;20375;-82
2022/07/04 14:36:48;;;;;;;;;;;24.40;80.90;;;;;;4984147;28;19927;-83
2022/07/04 14:39:13;;;;;;;;;;;24.80;77.70;;;;;;5006477;28;19925;-81
2022/07/04 14:41:39;;;;;;;;;;;24.70;74.70;;;;;;4978257;28;19928;-76
2022/07/04 14:44:04;;;;;;;;;;;24.50;76.80;;;;;;4993078;28;19917;-78
2022/07/04 14:46:30;;;;;;;;;;;24.20;75.90;;;;;;5013058;28;19927;-81